Time;durP1;ratioP1;P1;durP2;ratioP2;P2;SDS_P1;SDS_P2;PMS_P1;PMS_P2;Temp;Humidity;BMP_temperature;BMP_pressure;BME280_temperature;BME280_humidity;BME280_pressure;Samples;Min_cycle;Max_cycle;Signal;HPM_P1;HPM_P2
2022/06/14 00:11:02;;;;;;;75.00;67.80;;;;;;;8.15;80.73;99630.42;443681;1271;143097;-60
2022/06/14 00:21:24;;;;;;;101.60;91.80;;;;;;;8.12;80.76;99638.23;447141;1272;142477;-60
2022/06/14 00:31:45;;;;;;;34.70;31.10;;;;;;;8.10;80.93;99640.30;447149;1272;143381;-60
2022/06/14 00:42:15;;;;;;;20.00;18.00;;;;;;;8.04;81.17;99637.13;440675;1272;143062;-60
2022/06/14 00:52:41;;;;;;;12.50;10.20;;;;;;;7.98;81.30;99643.88;447115;1272;142778;-60
2022/06/14 01:03:10;;;;;;;9.10;7.40;;;;;;;7.94;81.59;99652.11;447114;1272;142295;-60
2022/06/14 01:13:32;;;;;;;6.00;4.80;;;;;;;7.98;81.74;99649.59;447160;1272;141671;-60
2022/06/14 01:23:54;;;;;;;5.10;4.50;;;;;;;8.11;81.52;99658.85;443858;1273;142823;-59
2022/06/14 01:34:16;;;;;;;5.80;4.30;;;;;;;8.03;81.29;99664.55;444491;1271;143535;-60
2022/06/14 01:44:45;;;;;;;7.10;3.80;;;;;;;7.85;81.54;99673.98;446375;1272;142753;-61
2022/06/14 01:55:18;;;;;;;6.50;4.50;;;;;;;7.73;81.71;99678.94;432026;1273;143532;-59
2022/06/14 02:05:47;;;;;;;7.20;6.10;;;;;;;7.66;82.08;99686.98;429066;1273;142572;-62
2022/06/14 02:16:17;;;;;;;10.30;6.30;;;;;;;7.57;82.16;99691.59;429732;1271;143403;-60
2022/06/14 02:26:43;;;;;;;10.60;5.60;;;;;;;7.61;82.22;99700.29;429215;1273;144094;-59
2022/06/14 02:37:10;;;;;;;6.60;4.60;;;;;;;7.64;82.35;99709.72;430141;1273;143094;-59
2022/06/14 02:47:38;;;;;;;7.30;4.90;;;;;;;7.87;82.18;99712.74;429355;1273;142545;-59
2022/06/14 02:58:06;;;;;;;8.60;4.50;;;;;;;8.36;82.37;99724.55;429956;1273;142881;-59
2022/06/14 03:08:31;;;;;;;8.80;3.40;;;;;;;9.96;82.13;99729.23;429000;1273;142334;-58
2022/06/14 03:19:00;;;;;;;8.00;3.20;;;;;;;13.16;77.87;99729.94;429837;1273;142170;-60
2022/06/14 03:29:29;;;;;;;7.10;2.20;;;;;;;14.93;73.79;99735.84;429768;1273;142366;-61
2022/06/14 03:39:55;;;;;;;4.60;2.50;;;;;;;16.11;68.10;99748.96;429854;1273;142861;-60
2022/06/14 03:50:24;;;;;;;4.10;2.20;;;;;;;14.09;68.07;99762.60;429327;1273;143983;-60
2022/06/14 04:00:50;;;;;;;6.60;2.80;;;;;;;17.76;69.84;99766.27;430437;1272;143322;-61
2022/06/14 04:11:23;;;;;;;3.50;2.80;;;;;;;25.11;59.86;99760.12;431035;1273;143507;-60
2022/06/14 04:21:53;;;;;;;6.30;2.50;;;;;;;28.54;50.98;99757.18;430124;1273;142560;-61
2022/06/14 04:32:20;;;;;;;5.20;2.30;;;;;;;31.45;45.30;99757.86;430480;1273;142939;-61
2022/06/14 04:42:48;;;;;;;3.40;2.10;;;;;;;34.13;39.91;99758.94;430543;1273;143215;-61
2022/06/14 04:53:15;;;;;;;9.50;3.00;;;;;;;32.85;37.02;99752.39;429710;1273;142088;-59
2022/06/14 05:03:41;;;;;;;7.10;1.90;;;;;;;36.41;33.55;99757.87;429715;1273;141891;-61
2022/06/14 05:14:07;;;;;;;3.90;1.60;;;;;;;38.55;31.21;99759.17;429586;1273;143347;-61
2022/06/14 05:24:29;;;;;;;7.90;2.50;;;;;;;40.71;27.87;99758.42;430593;1273;141428;-60
2022/06/14 05:35:02;;;;;;;8.50;2.10;;;;;;;42.57;25.40;99757.27;429838;1273;144425;-60
2022/06/14 05:45:26;;;;;;;2.90;1.80;;;;;;;44.60;23.34;99755.40;438163;1272;140911;-60
2022/06/14 05:55:51;;;;;;;2.90;1.70;;;;;;;45.38;21.23;99758.84;430508;1273;141019;-60
2022/06/14 06:06:18;;;;;;;6.10;1.50;;;;;;;45.30;19.87;99766.64;430123;1273;203549;-61
2022/06/14 06:16:45;;;;;;;3.40;1.80;;;;;;;45.99;18.89;99770.81;430776;1273;142101;-61
2022/06/14 06:27:10;;;;;;;6.10;1.90;;;;;;;47.47;17.95;99770.28;430532;1273;141966;-60
2022/06/14 06:37:37;;;;;;;4.90;2.00;;;;;;;48.45;16.70;99767.23;430037;1273;142527;-61
2022/06/14 06:48:08;;;;;;;4.80;2.30;;;;;;;48.50;16.18;99764.05;429997;1273;142023;-61
2022/06/14 06:58:35;;;;;;;2.20;2.10;;;;;;;49.17;15.46;99765.89;430308;1273;141959;-61
2022/06/14 07:08:59;;;;;;;1.90;1.50;;;;;;;46.85;14.99;99775.23;430393;1273;141712;-60
2022/06/14 07:19:30;;;;;;;3.10;1.10;;;;;;;43.57;16.01;99766.68;429962;1273;142788;-58
2022/06/14 07:29:58;;;;;;;2.70;0.90;;;;;;;40.36;17.32;99761.41;429940;1273;148288;-62
2022/06/14 07:40:26;;;;;;;1.60;1.10;;;;;;;41.31;17.24;99750.02;430107;1273;144922;-60
2022/06/14 07:50:51;;;;;;;4.50;1.30;;;;;;;38.40;17.66;99744.69;429631;1273;142142;-61
2022/06/14 08:01:19;;;;;;;3.50;0.80;;;;;;;32.86;21.12;99753.88;430144;1272;142104;-62
2022/06/14 08:11:46;;;;;;;3.00;0.70;;;;;;;27.50;25.30;99766.89;430204;1273;144801;-60
2022/06/14 08:22:13;;;;;;;4.00;1.20;;;;;;;25.26;28.18;99777.30;430682;1273;142379;-60
2022/06/14 08:32:44;;;;;;;3.20;0.70;;;;;;;24.13;29.75;99773.27;429541;1273;469238;-60
2022/06/14 08:43:08;;;;;;;4.30;0.90;;;;;;;23.28;31.18;99777.78;431098;1273;142718;-60
2022/06/14 08:54:07;;;;;;;13.40;1.90;;;;;;;22.17;33.22;99786.98;429596;1273;142424;-60
2022/06/14 09:05:09;;;;;;;3.60;1.00;;;;;;;20.65;35.21;99801.39;430530;1273;141622;-61
2022/06/14 09:16:06;;;;;;;5.00;0.80;;;;;;;19.17;37.49;99808.81;430187;1274;141154;-60
2022/06/14 09:26:45;;;;;;;5.50;1.10;;;;;;;19.97;37.88;99797.86;429603;1273;141869;-61
2022/06/14 09:37:35;;;;;;;2.80;0.90;;;;;;;19.98;37.08;99795.73;431014;1273;142215;-63
2022/06/14 09:48:14;;;;;;;2.80;0.50;;;;;;;19.96;37.21;99796.44;431527;1272;141748;-61
2022/06/14 09:59:13;;;;;;;5.60;1.00;;;;;;;19.68;36.91;99794.79;430416;1273;142550;-60
2022/06/14 10:09:47;;;;;;;3.20;0.60;;;;;;;19.70;36.85;99791.84;430592;1273;142354;-60
2022/06/14 10:20:43;;;;;;;2.90;0.90;;;;;;;19.68;37.09;99797.81;429565;1273;141383;-61
2022/06/14 10:31:10;;;;;;;3.60;0.90;;;;;;;20.43;36.07;99781.12;430282;1273;143273;-60
2022/06/14 10:41:39;;;;;;;5.70;1.30;;;;;;;19.84;36.27;99793.77;430268;1273;141523;-60
2022/06/14 10:52:25;;;;;;;1.40;0.70;;;;;;;19.54;36.82;99789.16;430234;1273;146106;-60
2022/06/14 11:03:01;;;;;;;3.10;1.00;;;;;;;19.58;37.36;99793.60;446530;1273;143154;-60
2022/06/14 11:13:37;;;;;;;8.80;0.70;;;;;;;19.68;36.91;99788.77;445619;1273;143176;-61
2022/06/14 11:24:09;;;;;;;1.60;0.50;;;;;;;19.93;36.84;99796.89;443660;1271;142816;-60
2022/06/14 11:34:53;;;;;;;2.90;0.60;;;;;;;19.83;36.82;99800.05;435046;1273;140886;-60
2022/06/14 11:45:25;;;;;;;2.50;0.80;;;;;;;19.47;37.31;99798.20;447130;1272;143178;-61
2022/06/14 11:55:54;;;;;;;1.40;0.70;;;;;;;19.63;37.20;99793.98;443855;1273;142294;-59
2022/06/14 12:06:27;;;;;;;3.90;0.80;;;;;;;19.40;37.50;99793.73;433565;1272;142452;-62
2022/06/14 12:16:56;;;;;;;6.70;1.10;;;;;;;19.45;36.61;99792.07;446410;1272;142119;-61
2022/06/14 12:27:19;;;;;;;3.10;0.80;;;;;;;19.48;37.03;99793.67;447208;1273;142661;-61
2022/06/14 12:37:50;;;;;;;10.70;1.90;;;;;;;19.51;36.34;99790.54;447220;1273;141439;-62
2022/06/14 12:48:26;;;;;;;5.90;0.80;;;;;;;19.23;37.00;99805.69;436359;1273;142429;-60
2022/06/14 12:59:07;;;;;;;3.00;0.60;;;;;;;19.44;36.29;99791.95;430004;1273;141669;-59
2022/06/14 13:09:40;;;;;;;1.30;0.60;;;;;;;18.99;37.34;99792.40;430420;1273;352852;-61
2022/06/14 13:20:16;;;;;;;1.40;0.50;;;;;;;19.15;36.66;99792.50;430744;1273;140864;-60
2022/06/14 13:30:47;;;;;;;4.10;0.70;;;;;;;19.30;36.27;99794.27;431097;1273;146758;-61
2022/06/14 13:41:14;;;;;;;6.20;1.10;;;;;;;19.20;36.76;99799.91;430886;1273;141478;-60
2022/06/14 13:51:42;;;;;;;4.20;0.70;;;;;;;19.21;36.65;99801.31;430019;1273;141432;-60
2022/06/14 14:02:14;;;;;;;2.80;0.80;;;;;;;19.06;37.03;99809.98;430272;1273;142330;-61
2022/06/14 14:12:44;;;;;;;2.20;0.60;;;;;;;19.54;36.93;99817.23;430644;1273;144195;-59
2022/06/14 14:23:26;;;;;;;3.30;1.00;;;;;;;19.38;36.35;99818.23;429276;1273;144474;-59
2022/06/14 14:33:54;;;;;;;2.70;0.90;;;;;;;18.76;37.32;99824.83;430348;1273;142191;-61
2022/06/14 14:44:25;;;;;;;7.20;0.90;;;;;;;19.17;37.37;99819.60;433456;1273;142649;-60
2022/06/14 14:54:59;;;;;;;4.90;0.90;;;;;;;19.01;37.35;99812.38;430952;1273;145681;-60
2022/06/14 15:05:28;;;;;;;3.00;0.70;;;;;;;19.06;37.39;99809.61;429713;1273;142322;-60
2022/06/14 15:15:50;;;;;;;3.80;0.80;;;;;;;18.74;37.63;99814.77;430174;1273;141582;-60
2022/06/14 15:26:16;;;;;;;2.80;1.00;;;;;;;18.76;38.24;99806.91;429025;1272;144816;-62
2022/06/14 15:36:40;;;;;;;4.00;1.10;;;;;;;18.25;37.95;99810.39;429698;1273;204921;-60
2022/06/14 15:47:09;;;;;;;2.10;1.10;;;;;;;18.25;38.48;99813.59;429590;1272;144022;-60
2022/06/14 15:57:34;;;;;;;2.70;1.10;;;;;;;18.27;37.54;99814.81;430185;1273;141951;-59
2022/06/14 16:08:00;;;;;;;2.20;1.00;;;;;;;17.93;37.86;99817.08;430111;1273;146643;-60
2022/06/14 16:18:34;;;;;;;4.80;1.30;;;;;;;17.48;38.67;99820.71;430252;1273;142118;-60
2022/06/14 16:29:06;;;;;;;3.10;1.40;;;;;;;17.57;38.27;99820.23;429249;1273;142619;-60
2022/06/14 16:39:36;;;;;;;9.70;3.80;;;;;;;17.05;38.99;99823.41;430324;1272;142528;-61
2022/06/14 16:50:06;;;;;;;5.10;1.90;;;;;;;17.05;39.77;99826.64;430214;1273;143395;-61
2022/06/14 17:00:35;;;;;;;2.30;1.90;;;;;;;16.96;40.43;99829.14;430570;1273;141973;-61
2022/06/14 17:11:03;;;;;;;5.30;1.30;;;;;;;16.53;41.43;99832.44;429937;1273;142612;-61
2022/06/14 17:21:31;;;;;;;3.40;0.80;;;;;;;16.38;42.02;99837.40;429991;1272;141101;-60
2022/06/14 17:31:56;;;;;;;7.60;1.70;;;;;;;16.31;42.03;99841.14;442172;1272;143211;-61
2022/06/14 17:42:24;;;;;;;3.40;1.50;;;;;;;16.04;42.35;99844.05;442244;1272;142623;-61
2022/06/14 17:52:52;;;;;;;2.60;0.80;;;;;;;15.83;42.80;99845.30;444468;1271;143015;-60
2022/06/14 18:03:14;;;;;;;4.70;1.40;;;;;;;15.67;43.42;99854.30;435194;1272;142516;-60
2022/06/14 18:13:44;;;;;;;3.20;1.40;;;;;;;15.49;44.07;99854.14;436078;1273;141792;-60
2022/06/14 18:24:09;;;;;;;4.00;1.60;;;;;;;15.28;44.73;99862.69;437976;1272;142249;-59
2022/06/14 18:34:36;;;;;;;2.90;1.30;;;;;;;15.12;45.25;99870.10;447193;1272;143166;-60
2022/06/14 18:45:32;;;;;;;2.90;1.30;;;;;;;15.00;45.84;99876.50;441076;1272;141482;-61
2022/06/14 18:55:56;;;;;;;4.40;1.30;;;;;;;14.88;46.38;99884.98;446418;1273;196715;-61
2022/06/14 19:06:20;;;;;;;8.10;1.60;;;;;;;14.74;46.99;99890.09;447193;1272;143216;-61
2022/06/14 19:17:02;;;;;;;4.00;1.50;;;;;;;14.62;47.64;99901.92;447203;1272;143743;-61
2022/06/14 19:27:41;;;;;;;2.80;1.50;;;;;;;14.48;48.39;99906.17;447163;1271;144602;-61
2022/06/14 19:38:04;;;;;;;8.00;2.20;;;;;;;14.34;49.28;99909.88;430256;1273;145285;-59
2022/06/14 19:59:15;;;;;;;3.10;1.60;;;;;;;13.74;51.63;99900.09;430322;1273;144344;-60
2022/06/14 20:09:39;;;;;;;4.30;2.10;;;;;;;13.48;52.84;99901.11;443137;1271;142521;-61
2022/06/14 20:20:09;;;;;;;3.40;2.00;;;;;;;13.29;53.80;99906.09;446260;1272;142016;-61
2022/06/14 20:30:33;;;;;;;6.50;2.60;;;;;;;13.16;55.01;99909.63;441700;1271;345028;-60
2022/06/14 20:40:57;;;;;;;5.50;3.00;;;;;;;13.05;55.46;99919.81;439381;1272;142826;-61
2022/06/14 20:51:21;;;;;;;4.80;3.00;;;;;;;13.00;55.91;99913.55;445666;1273;142147;-60
2022/06/14 21:01:43;;;;;;;7.30;3.00;;;;;;;12.98;56.42;99918.60;446893;1273;141782;-61
2022/06/14 21:12:15;;;;;;;5.20;3.00;;;;;;;12.93;56.98;99922.45;439635;1273;143054;-61
2022/06/14 21:22:41;;;;;;;7.30;3.00;;;;;;;12.72;57.54;99922.80;446949;1270;142571;-60
2022/06/14 21:33:07;;;;;;;8.30;2.90;;;;;;;12.51;58.39;99930.14;444719;1273;141760;-61
2022/06/14 21:43:30;;;;;;;6.70;2.80;;;;;;;12.28;58.76;99930.40;443557;1273;142746;-60
2022/06/14 21:53:56;;;;;;;4.10;3.10;;;;;;;12.00;59.33;99938.33;447210;1273;143176;-60
2022/06/14 22:04:20;;;;;;;5.30;2.80;;;;;;;11.87;60.08;99939.69;447310;1272;143905;-61
2022/06/14 22:14:41;;;;;;;5.20;2.50;;;;;;;11.89;60.59;99943.23;446430;1272;143344;-61
2022/06/14 22:25:04;;;;;;;6.00;2.50;;;;;;;11.95;61.11;99947.10;435459;1273;145400;-62
2022/06/14 22:35:27;;;;;;;4.90;2.60;;;;;;;11.99;61.51;99950.85;441707;1272;143833;-61
2022/06/14 22:45:48;;;;;;;4.60;2.50;;;;;;;11.98;61.47;99952.67;442544;1271;142432;-57
2022/06/14 22:56:13;;;;;;;3.70;1.90;;;;;;;12.10;60.76;99943.38;445425;1273;143002;-60
2022/06/14 23:06:35;;;;;;;2.50;1.60;;;;;;;12.21;60.33;99948.79;444425;1272;143129;-61
2022/06/14 23:16:56;;;;;;;3.40;1.80;;;;;;;12.24;60.25;99944.06;446526;1273;142626;-60
2022/06/14 23:27:18;;;;;;;2.40;2.10;;;;;;;12.23;60.65;99949.56;438880;1272;143145;-60
2022/06/14 23:37:40;;;;;;;3.80;1.50;;;;;;;12.23;61.24;99948.31;435407;1272;143591;-60
2022/06/14 23:48:02;;;;;;;7.50;2.70;;;;;;;12.19;61.52;99949.08;442551;1273;147629;-61
2022/06/14 23:58:26;;;;;;;4.80;2.00;;;;;;;12.18;61.95;99948.09;436370;1273;141993;-61
